Time;durP1;ratioP1;P1;durP2;ratioP2;P2;SDS_P1;SDS_P2;PMS_P1;PMS_P2;Temp;Humidity;BMP_temperature;BMP_pressure;BME280_temperature;BME280_humidity;BME280_pressure;Samples;Min_cycle;Max_cycle;Signal;HPM_P1;HPM_P2
2022/02/18 00:00:23;;;;;;;5.78;5.38;;;4.20;99.90;;;;;;5062065;28;20226;-69
2022/02/18 00:02:50;;;;;;;5.80;5.40;;;4.20;99.90;;;;;;5065323;28;20213;-69
2022/02/18 00:05:17;;;;;;;6.63;6.05;;;4.20;99.90;;;;;;5063851;28;20637;-69
2022/02/18 00:07:44;;;;;;;6.72;6.13;;;4.20;99.90;;;;;;5062482;28;20195;-69
2022/02/18 00:10:11;;;;;;;6.35;5.85;;;4.30;99.90;;;;;;5066689;28;20218;-70
2022/02/18 00:12:40;;;;;;;7.07;6.47;;;4.30;99.90;;;;;;5063312;28;20275;-69
2022/02/18 00:15:08;;;;;;;6.43;5.93;;;4.20;99.90;;;;;;5059908;28;20233;-69
2022/02/18 00:17:37;;;;;;;6.38;5.88;;;4.20;99.90;;;;;;5068378;28;20266;-69
2022/02/18 00:20:05;;;;;;;6.55;5.95;;;4.20;99.90;;;;;;5058221;28;20213;-69
2022/02/18 00:22:32;;;;;;;6.57;5.97;;;4.20;99.90;;;;;;5065721;28;20227;-70
2022/02/18 00:24:59;;;;;;;7.03;6.43;;;4.10;99.90;;;;;;5057217;28;20230;-69
2022/02/18 00:27:27;;;;;;;6.95;6.35;;;4.10;99.90;;;;;;5066268;28;20654;-69
2022/02/18 00:29:55;;;;;;;6.72;5.72;;;4.10;99.90;;;;;;5059621;28;20219;-69
2022/02/18 00:32:22;;;;;;;6.93;6.43;;;4.10;99.90;;;;;;5066201;28;20286;-69
2022/02/18 00:34:49;;;;;;;6.50;6.00;;;4.10;99.90;;;;;;5062133;28;20268;-70
2022/02/18 00:37:17;;;;;;;6.95;6.40;;;4.10;99.90;;;;;;5063433;28;20218;-70
2022/02/18 00:39:44;;;;;;;6.43;5.93;;;4.00;99.90;;;;;;5063600;28;20241;-69
2022/02/18 00:42:11;;;;;;;7.75;6.95;;;4.00;99.90;;;;;;5065931;28;20199;-70
2022/02/18 00:44:38;;;;;;;6.90;6.35;;;4.00;99.90;;;;;;5062978;28;20226;-70
2022/02/18 00:47:07;;;;;;;7.00;6.40;;;4.00;99.90;;;;;;5070863;28;20194;-70
2022/02/18 00:49:34;;;;;;;7.07;6.53;;;4.00;99.90;;;;;;5057569;28;20421;-70
2022/02/18 00:52:01;;;;;;;7.07;6.47;;;4.00;99.90;;;;;;5067100;28;20197;-69
2022/02/18 00:54:28;;;;;;;7.00;6.40;;;4.00;99.90;;;;;;5069586;28;20225;-71
2022/02/18 00:56:56;;;;;;;6.53;6.03;;;4.00;99.90;;;;;;5064739;28;20283;-70
2022/02/18 00:59:23;;;;;;;7.07;6.47;;;4.00;99.90;;;;;;5069400;28;20202;-69
2022/02/18 01:01:50;;;;;;;7.75;7.15;;;4.00;99.90;;;;;;5062899;28;20205;-69
2022/02/18 01:04:19;;;;;;;7.05;6.53;;;3.90;99.90;;;;;;5068820;28;20652;-71
2022/02/18 01:06:46;;;;;;;7.25;6.63;;;3.80;99.90;;;;;;5068081;28;20267;-71
2022/02/18 01:09:13;;;;;;;7.28;6.57;;;3.70;99.90;;;;;;5062035;28;20206;-70
2022/02/18 01:11:40;;;;;;;6.35;5.85;;;3.60;99.90;;;;;;5064945;28;20194;-70
2022/02/18 01:14:07;;;;;;;7.88;7.18;;;3.60;99.90;;;;;;5066046;28;20243;-69
2022/02/18 01:16:34;;;;;;;8.30;7.60;;;3.50;99.90;;;;;;5073097;28;20224;-71
2022/02/18 01:19:01;;;;;;;8.07;7.28;;;3.50;99.90;;;;;;5070754;28;20299;-69
2022/02/18 01:21:30;;;;;;;7.97;7.28;;;3.50;99.90;;;;;;5072850;28;20279;-72
2022/02/18 01:23:57;;;;;;;7.22;6.72;;;3.50;99.90;;;;;;5065872;28;20198;-70
2022/02/18 01:26:24;;;;;;;7.75;7.15;;;3.50;99.90;;;;;;5069870;28;20219;-70
2022/02/18 01:28:51;;;;;;;7.57;6.97;;;3.50;99.90;;;;;;5069465;28;20232;-69
2022/02/18 01:31:18;;;;;;;6.47;5.97;;;3.60;99.90;;;;;;5072016;28;20229;-71
2022/02/18 01:33:45;;;;;;;7.80;7.05;;;3.50;99.90;;;;;;5068593;28;20199;-70
2022/02/18 01:36:12;;;;;;;7.75;7.15;;;3.60;99.90;;;;;;5070681;28;20221;-69
2022/02/18 01:38:41;;;;;;;7.88;7.28;;;3.70;99.90;;;;;;5071958;28;20692;-70
2022/02/18 01:41:09;;;;;;;6.43;5.93;;;3.70;99.90;;;;;;5067367;28;20214;-69
2022/02/18 01:43:37;;;;;;;6.63;6.13;;;3.80;99.90;;;;;;5065994;28;20202;-69
2022/02/18 01:46:04;;;;;;;6.03;5.60;;;3.80;99.90;;;;;;5070460;28;20225;-72
2022/02/18 01:48:31;;;;;;;6.00;5.60;;;3.80;99.90;;;;;;5070900;28;20189;-69
2022/02/18 01:50:58;;;;;;;6.45;5.85;;;3.80;99.90;;;;;;5065361;28;20276;-69
2022/02/18 01:53:25;;;;;;;7.00;6.40;;;3.80;99.90;;;;;;5068899;28;20258;-69
2022/02/18 01:55:55;;;;;;;5.82;5.35;;;3.80;99.90;;;;;;5064686;28;20214;-69
2022/02/18 01:58:24;;;;;;;6.57;6.07;;;3.70;99.90;;;;;;5067841;28;20561;-70
2022/02/18 02:00:52;;;;;;;6.88;6.38;;;3.80;99.90;;;;;;5067156;28;20336;-69
2022/02/18 02:03:20;;;;;;;6.88;6.28;;;3.80;99.90;;;;;;5065912;28;20199;-69
2022/02/18 02:05:48;;;;;;;7.07;6.55;;;3.80;99.90;;;;;;5064100;28;20233;-69
2022/02/18 02:08:15;;;;;;;6.53;5.93;;;3.70;99.90;;;;;;5066502;28;20199;-69
2022/02/18 02:10:44;;;;;;;6.07;5.65;;;3.70;99.90;;;;;;5065077;28;20702;-69
2022/02/18 02:13:28;;;;;;;5.72;5.32;;;3.70;99.90;;;;;;5065592;28;20206;-69
2022/02/18 02:15:56;;;;;;;6.10;5.70;;;3.60;99.90;;;;;;5067305;28;20306;-69
2022/02/18 02:18:23;;;;;;;6.97;5.85;;;3.60;99.90;;;;;;5063558;28;20263;-69
2022/02/18 02:20:50;;;;;;;6.30;5.80;;;3.60;99.90;;;;;;5066108;28;20224;-69
2022/02/18 02:23:19;;;;;;;6.78;6.18;;;3.60;99.90;;;;;;5065253;28;20236;-69
2022/02/18 02:25:47;;;;;;;7.22;6.65;;;3.60;99.90;;;;;;5066291;28;20288;-69
2022/02/18 02:28:14;;;;;;;6.38;5.78;;;3.60;99.90;;;;;;5071249;28;20194;-69
2022/02/18 02:30:41;;;;;;;6.20;5.70;;;3.50;99.90;;;;;;5062043;28;20229;-69
2022/02/18 02:33:08;;;;;;;7.05;6.55;;;3.50;99.90;;;;;;5065528;28;20194;-70
2022/02/18 02:35:35;;;;;;;7.30;6.72;;;3.50;99.90;;;;;;5065003;28;20760;-69
2022/02/18 02:38:03;;;;;;;6.60;6.10;;;3.50;99.90;;;;;;5061946;28;20359;-69
2022/02/18 02:40:32;;;;;;;7.07;6.47;;;3.50;99.90;;;;;;5068255;28;20221;-69
2022/02/18 02:42:59;;;;;;;6.68;6.10;;;3.60;99.90;;;;;;5068018;28;20206;-70
2022/02/18 02:45:26;;;;;;;5.68;5.18;;;3.50;99.90;;;;;;5064005;28;20288;-69
2022/02/18 02:47:54;;;;;;;5.38;4.97;;;3.50;99.90;;;;;;5065759;28;20191;-69
2022/02/18 02:50:21;;;;;;;6.07;5.57;;;3.50;99.90;;;;;;5066062;28;20229;-69
2022/02/18 02:52:48;;;;;;;5.78;5.38;;;3.30;99.90;;;;;;5067799;28;20228;-70
2022/02/18 02:55:15;;;;;;;5.13;4.82;;;3.30;99.90;;;;;;5063410;28;20329;-70
2022/02/18 02:57:44;;;;;;;5.50;5.10;;;3.20;99.90;;;;;;5067499;28;20218;-69
2022/02/18 03:02:44;;;;;;;5.47;5.07;;;3.20;99.90;;;;;;5089060;23;20230;-75
2022/02/18 03:05:12;;;;;;;5.75;5.25;;;3.20;99.90;;;;;;5046535;28;20233;-74
2022/02/18 03:07:39;;;;;;;5.53;5.13;;;3.20;99.90;;;;;;5047994;28;20199;-77
2022/02/18 03:10:09;;;;;;;5.68;5.28;;;3.20;99.90;;;;;;5048259;28;20231;-77
2022/02/18 03:12:36;;;;;;;5.75;5.35;;;3.30;99.90;;;;;;5045097;28;20223;-77
2022/02/18 03:15:06;;;;;;;7.43;6.82;;;3.30;99.90;;;;;;5049001;28;20280;-78
2022/02/18 03:17:33;;;;;;;6.85;6.25;;;3.30;99.90;;;;;;5045173;28;20191;-80
2022/02/18 03:20:00;;;;;;;6.82;6.32;;;3.40;99.90;;;;;;5046931;28;21022;-79
2022/02/18 03:22:27;;;;;;;6.93;6.32;;;3.40;99.90;;;;;;5043906;28;20306;-83
2022/02/18 03:24:54;;;;;;;6.63;6.05;;;3.40;99.90;;;;;;5042130;28;20199;-79
2022/02/18 03:27:21;;;;;;;7.18;6.57;;;3.30;99.90;;;;;;5046181;28;20253;-76
2022/02/18 03:29:48;;;;;;;8.25;7.57;;;3.30;99.90;;;;;;5045283;28;20202;-78
2022/02/18 03:32:17;;;;;;;7.45;6.70;;;3.20;99.90;;;;;;5044303;28;20606;-77
2022/02/18 03:34:44;;;;;;;7.60;7.00;;;3.10;99.90;;;;;;5046387;28;20253;-74
2022/02/18 03:37:11;;;;;;;7.18;6.57;;;3.00;99.90;;;;;;5042285;28;20282;-80
2022/02/18 03:39:38;;;;;;;7.15;6.65;;;3.00;99.90;;;;;;5044171;28;20215;-76
2022/02/18 03:42:06;;;;;;;7.80;7.20;;;2.90;99.90;;;;;;5045134;28;20223;-76
2022/02/18 03:44:35;;;;;;;7.07;6.57;;;2.80;99.90;;;;;;5049393;28;20195;-81
2022/02/18 03:47:02;;;;;;;6.65;6.05;;;2.80;99.90;;;;;;5046388;28;20593;-79
2022/02/18 03:49:30;;;;;;;7.03;6.43;;;2.90;99.90;;;;;;5043588;28;20248;-76
2022/02/18 03:51:57;;;;;;;7.10;6.50;;;2.90;99.90;;;;;;5041475;28;20223;-77
2022/02/18 03:54:26;;;;;;;7.22;6.63;;;2.80;99.90;;;;;;5041302;28;20195;-76
2022/02/18 03:56:54;;;;;;;7.72;7.10;;;2.80;99.90;;;;;;5044963;28;20225;-81
2022/02/18 03:59:21;;;;;;;7.43;6.88;;;2.80;99.90;;;;;;5040675;28;20223;-75
2022/02/18 04:01:49;;;;;;;6.93;6.32;;;2.70;99.90;;;;;;5044319;28;20310;-79
2022/02/18 04:04:16;;;;;;;7.25;6.75;;;2.70;99.90;;;;;;5046305;28;20206;-80
2022/02/18 04:06:44;;;;;;;7.93;7.15;;;2.70;99.90;;;;;;5046254;28;20225;-76
2022/02/18 04:09:11;;;;;;;8.40;7.70;;;2.70;99.90;;;;;;5043542;28;20207;-82
2022/02/18 04:11:38;;;;;;;7.53;6.93;;;2.70;99.90;;;;;;5046869;28;20284;-78
2022/02/18 04:14:05;;;;;;;8.20;7.50;;;2.70;99.90;;;;;;5043768;28;20272;-77
2022/02/18 04:16:32;;;;;;;7.53;6.88;;;2.70;99.90;;;;;;5040223;28;20212;-83
2022/02/18 04:18:59;;;;;;;6.82;6.32;;;2.70;99.90;;;;;;5041324;28;20229;-79
2022/02/18 04:21:26;;;;;;;7.05;6.45;;;2.70;99.90;;;;;;5041098;28;20222;-83
2022/02/18 04:23:56;;;;;;;7.32;6.72;;;2.70;99.90;;;;;;5043810;28;20756;-78
2022/02/18 04:26:23;;;;;;;7.68;7.05;;;2.80;99.90;;;;;;5046273;28;20257;-79
2022/02/18 04:28:50;;;;;;;8.55;7.85;;;2.80;99.90;;;;;;5044518;28;20217;-75
2022/02/18 04:31:17;;;;;;;7.35;6.75;;;2.90;99.90;;;;;;5041517;28;20222;-77
2022/02/18 04:33:44;;;;;;;7.70;7.10;;;2.90;99.90;;;;;;5045410;28;20226;-81
2022/02/18 04:36:12;;;;;;;7.53;6.82;;;2.90;99.90;;;;;;5043412;28;20223;-81
2022/02/18 04:38:39;;;;;;;8.07;7.38;;;2.90;99.90;;;;;;5044812;28;20874;-78
2022/02/18 04:41:08;;;;;;;8.43;7.70;;;2.90;99.90;;;;;;5042849;28;20526;-78
2022/02/18 04:43:36;;;;;;;8.50;7.70;;;2.80;99.90;;;;;;5042580;28;20257;-78
2022/02/18 04:46:03;;;;;;;8.38;7.18;;;2.80;99.90;;;;;;5044088;28;20268;-78
2022/02/18 04:48:30;;;;;;;8.45;7.75;;;2.70;99.90;;;;;;5042022;28;20199;-75
2022/02/18 04:50:57;;;;;;;8.10;7.50;;;2.70;99.90;;;;;;5042338;28;20276;-77
2022/02/18 04:53:24;;;;;;;6.55;6.03;;;2.70;99.90;;;;;;5040118;28;20514;-78
2022/02/18 04:55:51;;;;;;;8.38;7.68;;;2.80;99.90;;;;;;5042468;28;21045;-79
2022/02/18 04:58:20;;;;;;;7.10;6.60;;;2.80;99.90;;;;;;5042284;28;20223;-75
2022/02/18 05:00:47;;;;;;;7.80;7.20;;;2.80;99.90;;;;;;5044620;28;20226;-75
2022/02/18 05:03:14;;;;;;;7.45;6.82;;;2.80;99.90;;;;;;5044874;28;20275;-75
2022/02/18 05:05:42;;;;;;;7.13;6.63;;;2.80;99.90;;;;;;5043550;28;20751;-78
2022/02/18 05:08:09;;;;;;;7.75;7.13;;;2.90;99.90;;;;;;5044305;28;20215;-75
2022/02/18 05:10:36;;;;;;;7.03;6.43;;;2.90;99.90;;;;;;5039857;28;20219;-78
2022/02/18 05:13:03;;;;;;;6.60;6.10;;;2.90;99.90;;;;;;5044784;28;20226;-78
2022/02/18 05:15:33;;;;;;;7.15;6.65;;;3.00;99.90;;;;;;5046306;28;20227;-74
2022/02/18 05:18:02;;;;;;;6.47;5.97;;;3.00;99.90;;;;;;5043984;28;20199;-78
2022/02/18 05:20:29;;;;;;;7.35;6.72;;;3.00;99.90;;;;;;5043488;28;20242;-79
2022/02/18 05:22:57;;;;;;;7.13;6.63;;;3.00;99.90;;;;;;5038026;28;20227;-77
2022/02/18 05:25:24;;;;;;;8.15;7.45;;;3.00;99.90;;;;;;5044375;28;20195;-74
2022/02/18 05:27:52;;;;;;;7.45;6.85;;;3.00;99.90;;;;;;5038456;28;20264;-77
2022/02/18 05:30:19;;;;;;;7.15;6.65;;;3.00;99.90;;;;;;5044999;28;20278;-75
2022/02/18 05:32:48;;;;;;;7.88;7.18;;;3.00;99.90;;;;;;5043492;28;20203;-74
2022/02/18 05:35:15;;;;;;;8.50;7.80;;;2.90;99.90;;;;;;5038555;28;20510;-79
2022/02/18 05:37:42;;;;;;;7.32;6.72;;;2.90;99.90;;;;;;5043139;28;20206;-74
2022/02/18 05:40:10;;;;;;;9.25;8.45;;;2.80;99.90;;;;;;5042639;28;20312;-79
2022/02/18 05:42:37;;;;;;;7.30;6.68;;;2.80;99.90;;;;;;5043604;28;20225;-78
2022/02/18 05:45:05;;;;;;;8.35;7.65;;;2.60;99.90;;;;;;5039838;28;20688;-76
2022/02/18 05:47:35;;;;;;;8.13;7.43;;;2.60;99.90;;;;;;5043929;28;20272;-75
2022/02/18 05:50:04;;;;;;;8.02;7.40;;;2.50;99.90;;;;;;5040309;28;20201;-77
2022/02/18 05:52:31;;;;;;;7.82;7.15;;;2.50;99.90;;;;;;5043139;28;20278;-77
2022/02/18 05:54:58;;;;;;;7.47;6.88;;;2.50;99.90;;;;;;5040139;28;20253;-76
2022/02/18 05:57:25;;;;;;;8.45;7.68;;;2.40;99.90;;;;;;5041562;28;20759;-77
2022/02/18 05:59:52;;;;;;;7.50;6.90;;;2.40;99.90;;;;;;5047821;28;20227;-75
2022/02/18 06:02:19;;;;;;;7.18;6.65;;;2.30;99.90;;;;;;5043178;28;20230;-74
2022/02/18 06:04:46;;;;;;;7.10;6.60;;;2.30;99.90;;;;;;5043046;28;20198;-77
2022/02/18 06:07:16;;;;;;;7.38;6.78;;;2.30;99.90;;;;;;5044293;28;20227;-75
2022/02/18 06:09:43;;;;;;;6.75;6.25;;;2.30;99.90;;;;;;5041123;28;20733;-77
2022/02/18 06:12:11;;;;;;;6.53;6.00;;;2.40;99.90;;;;;;5044371;28;20223;-77
2022/02/18 06:14:38;;;;;;;6.93;6.32;;;2.50;99.90;;;;;;5043855;28;20252;-75
2022/02/18 06:17:08;;;;;;;7.22;6.57;;;2.50;99.90;;;;;;5041509;28;20596;-76
2022/02/18 06:19:35;;;;;;;7.38;6.80;;;2.60;99.90;;;;;;5042740;28;20227;-75
2022/02/18 06:22:03;;;;;;;7.88;7.28;;;2.50;99.90;;;;;;5041150;28;20218;-77
2022/02/18 06:24:32;;;;;;;7.80;7.10;;;2.50;99.90;;;;;;5045087;28;20257;-75
2022/02/18 06:26:59;;;;;;;7.53;6.93;;;2.50;99.90;;;;;;5046160;28;20223;-76
2022/02/18 06:29:26;;;;;;;7.95;7.35;;;2.50;99.90;;;;;;5045384;28;20198;-75
2022/02/18 06:31:53;;;;;;;7.25;6.65;;;2.40;99.90;;;;;;5043913;28;20233;-77
2022/02/18 06:34:20;;;;;;;7.35;6.75;;;2.40;99.90;;;;;;5049741;28;20207;-78
2022/02/18 06:36:47;;;;;;;8.82;8.02;;;2.40;99.90;;;;;;5046428;28;20752;-79
2022/02/18 06:39:14;;;;;;;8.88;8.18;;;2.30;99.90;;;;;;5041786;28;20548;-77
2022/02/18 06:41:42;;;;;;;8.18;7.47;;;2.30;99.90;;;;;;5047968;28;20529;-76
2022/02/18 06:44:09;;;;;;;7.93;7.22;;;2.30;99.90;;;;;;5043801;28;20549;-81
2022/02/18 06:46:36;;;;;;;7.88;7.22;;;2.30;99.90;;;;;;5041237;28;20303;-76
2022/02/18 06:49:04;;;;;;;7.63;7.03;;;2.30;99.90;;;;;;5046825;28;20540;-76
2022/02/18 06:51:31;;;;;;;7.93;7.30;;;2.30;99.90;;;;;;5047819;28;20219;-75
2022/02/18 06:53:58;;;;;;;7.72;7.13;;;2.30;99.90;;;;;;5047063;28;20204;-76
2022/02/18 06:56:25;;;;;;;8.10;7.40;;;2.40;99.90;;;;;;5045774;28;20223;-75
2022/02/18 06:58:53;;;;;;;9.00;8.20;;;2.50;99.90;;;;;;5048718;28;20318;-75
2022/02/18 07:01:20;;;;;;;8.27;7.47;;;2.50;99.90;;;;;;5047276;28;20223;-76
2022/02/18 07:03:47;;;;;;;7.45;6.82;;;2.60;99.90;;;;;;5051064;28;20618;-77
2022/02/18 07:06:14;;;;;;;7.45;6.85;;;2.60;99.90;;;;;;5040530;28;20238;-76
2022/02/18 07:08:41;;;;;;;8.02;7.32;;;2.60;99.90;;;;;;5045151;28;20207;-77
2022/02/18 07:11:08;;;;;;;8.02;7.32;;;2.70;99.90;;;;;;5046229;28;20705;-78
2022/02/18 07:13:35;;;;;;;7.63;6.93;;;2.60;99.90;;;;;;5048265;28;20195;-80
2022/02/18 07:16:04;;;;;;;8.48;7.70;;;2.60;99.90;;;;;;5046299;28;20724;-78
2022/02/18 07:18:31;;;;;;;7.93;7.22;;;2.60;99.90;;;;;;5049537;28;20251;-82
2022/02/18 07:20:58;;;;;;;8.20;7.50;;;2.70;99.90;;;;;;5047727;28;20233;-81
2022/02/18 07:23:25;;;;;;;10.05;9.15;;;2.70;99.90;;;;;;5047878;28;20195;-79
2022/02/18 07:25:52;;;;;;;7.80;7.20;;;2.80;99.90;;;;;;5046811;28;20207;-77
2022/02/18 07:28:20;;;;;;;9.52;8.65;;;2.80;99.90;;;;;;5045454;28;20203;-82
2022/02/18 07:30:47;;;;;;;10.80;9.90;;;3.00;99.90;;;;;;5039806;28;20211;-84
2022/02/18 07:33:16;;;;;;;10.32;9.30;;;4.00;99.90;;;;;;5044105;28;20286;-81
2022/02/18 07:35:43;;;;;;;9.75;8.90;;;5.10;99.90;;;;;;5036893;28;20206;-79
2022/02/18 07:38:11;;;;;;;9.48;8.65;;;6.00;99.90;;;;;;5042101;28;20206;-77
2022/02/18 07:40:38;;;;;;;8.98;8.18;;;6.80;99.90;;;;;;5041786;28;20215;-79
2022/02/18 07:43:05;;;;;;;9.25;8.45;;;7.40;99.90;;;;;;5042881;28;20673;-76
2022/02/18 07:45:32;;;;;;;9.35;8.55;;;8.00;99.90;;;;;;5041407;28;20213;-76
2022/02/18 07:47:59;;;;;;;9.30;8.50;;;8.50;99.90;;;;;;5050764;28;20241;-81
2022/02/18 07:50:28;;;;;;;9.68;8.82;;;8.90;99.90;;;;;;5050666;28;20195;-75
2022/02/18 07:52:55;;;;;;;9.45;8.55;;;9.30;99.90;;;;;;5042547;28;20211;-76
2022/02/18 07:55:22;;;;;;;8.57;7.85;;;9.70;99.90;;;;;;5041071;28;20230;-80
2022/02/18 07:57:49;;;;;;;8.02;7.32;;;10.10;99.90;;;;;;5042966;28;20215;-80
2022/02/18 08:00:17;;;;;;;9.43;8.48;;;10.50;99.90;;;;;;5041928;28;20218;-79
2022/02/18 08:02:44;;;;;;;9.23;8.40;;;10.90;99.90;;;;;;5042696;28;20226;-78
2022/02/18 08:05:12;;;;;;;8.80;8.00;;;11.20;99.90;;;;;;5037389;28;20210;-79
2022/02/18 08:07:40;;;;;;;8.60;7.80;;;11.40;99.90;;;;;;5041329;28;20754;-79
2022/02/18 08:10:08;;;;;;;9.48;8.57;;;11.50;99.90;;;;;;5045365;28;20194;-81
2022/02/18 08:12:35;;;;;;;9.38;8.57;;;11.60;99.90;;;;;;5042265;28;20292;-76
2022/02/18 08:15:02;;;;;;;10.50;9.60;;;11.60;99.90;;;;;;5043252;28;20194;-81
2022/02/18 08:17:34;;;;;;;9.25;8.40;;;11.90;99.90;;;;;;5041774;28;20234;-75
2022/02/18 08:20:02;;;;;;;8.05;7.25;;;11.90;99.90;;;;;;5043621;28;20272;-77
2022/02/18 08:22:29;;;;;;;8.40;7.70;;;11.80;99.90;;;;;;5041231;28;20597;-78
2022/02/18 08:24:57;;;;;;;9.20;8.30;;;12.00;99.90;;;;;;5043896;28;20268;-82
2022/02/18 08:27:24;;;;;;;9.20;8.40;;;12.20;99.90;;;;;;5038583;28;20215;-79
2022/02/18 08:29:51;;;;;;;9.32;8.43;;;12.40;99.90;;;;;;5045435;28;20620;-77
2022/02/18 08:32:18;;;;;;;8.38;7.68;;;12.50;99.90;;;;;;5041030;28;20287;-79
2022/02/18 08:34:45;;;;;;;9.35;8.45;;;12.60;99.90;;;;;;5038477;28;20205;-76
2022/02/18 08:37:13;;;;;;;8.75;8.05;;;12.50;99.90;;;;;;5039186;28;20223;-77
2022/02/18 08:39:41;;;;;;;8.23;7.43;;;12.50;99.90;;;;;;5033984;28;20281;-78
2022/02/18 08:42:11;;;;;;;8.25;7.55;;;12.70;99.90;;;;;;5046744;28;20270;-76
2022/02/18 08:44:38;;;;;;;8.82;8.02;;;12.80;99.90;;;;;;5041267;28;20198;-74
2022/02/18 08:47:06;;;;;;;8.13;7.43;;;13.00;99.90;;;;;;5042913;28;20215;-75
2022/02/18 08:49:33;;;;;;;8.30;7.55;;;13.20;99.90;;;;;;5050069;28;20949;-76
2022/02/18 08:52:00;;;;;;;8.68;7.75;;;13.50;99.90;;;;;;5044780;28;20280;-74
2022/02/18 08:54:27;;;;;;;8.10;7.40;;;13.80;99.90;;;;;;5042021;28;20198;-74
2022/02/18 08:56:55;;;;;;;7.57;6.97;;;13.60;99.90;;;;;;5043933;28;20686;-77
2022/02/18 08:59:23;;;;;;;7.47;6.70;;;13.30;99.90;;;;;;5043104;28;20206;-76
2022/02/18 09:04:18;;;;;;;7.95;7.25;;;13.60;99.90;;;;;;5013781;28;20802;-74
2022/02/18 09:06:45;;;;;;;7.88;7.18;;;13.90;99.90;;;;;;5020806;28;20219;-72
2022/02/18 09:09:12;;;;;;;7.85;7.05;;;14.20;99.90;;;;;;5019449;28;20212;-72
2022/02/18 09:11:40;;;;;;;7.57;6.90;;;14.30;99.90;;;;;;5018131;28;20226;-72
2022/02/18 09:14:07;;;;;;;7.97;7.13;;;14.00;99.90;;;;;;4997443;28;20207;-74
2022/02/18 09:16:35;;;;;;;7.82;7.13;;;13.60;99.90;;;;;;4997530;28;20223;-72
2022/02/18 09:19:03;;;;;;;7.43;6.82;;;13.60;99.90;;;;;;4998614;28;20204;-71
2022/02/18 09:21:30;;;;;;;8.27;7.57;;;13.60;99.90;;;;;;4998464;28;20235;-72
2022/02/18 09:23:57;;;;;;;10.25;8.07;;;13.50;99.90;;;;;;4999074;28;20224;-73
2022/02/18 09:26:26;;;;;;;8.93;8.13;;;13.20;99.90;;;;;;4998406;28;20236;-72
2022/02/18 09:28:53;;;;;;;8.07;7.30;;;12.90;99.90;;;;;;4998725;28;20231;-73
2022/02/18 09:31:20;;;;;;;8.57;7.78;;;12.80;99.90;;;;;;5000692;28;20262;-74
2022/02/18 09:33:50;;;;;;;7.00;6.40;;;13.10;99.90;;;;;;5002482;28;20699;-75
2022/02/18 09:36:17;;;;;;;8.95;8.02;;;13.40;99.90;;;;;;5002347;28;20739;-72
2022/02/18 09:38:44;;;;;;;8.45;7.57;;;13.50;99.90;;;;;;5001466;28;20200;-71
2022/02/18 09:41:11;;;;;;;9.30;8.50;;;13.40;99.90;;;;;;4998866;28;20228;-73
2022/02/18 09:43:41;;;;;;;10.32;8.60;;;13.40;99.90;;;;;;5001737;28;20228;-72
2022/02/18 09:46:08;;;;;;;10.32;9.25;;;13.20;99.90;;;;;;5001215;28;20201;-71
2022/02/18 09:48:36;;;;;;;10.20;9.20;;;12.90;99.90;;;;;;5000775;28;20670;-75
2022/02/18 09:51:07;;;;;;;11.02;10.02;;;12.80;99.90;;;;;;5002100;28;20197;-72
2022/02/18 09:53:34;;;;;;;10.48;9.23;;;12.40;99.90;;;;;;5002064;28;20228;-75
2022/02/18 09:56:02;;;;;;;9.15;8.35;;;12.10;99.90;;;;;;5001977;28;20299;-73
2022/02/18 09:58:29;;;;;;;10.55;9.70;;;12.10;99.90;;;;;;5000475;28;20231;-75
2022/02/18 10:00:56;;;;;;;8.98;8.27;;;12.10;99.90;;;;;;5000680;28;20220;-72
2022/02/18 10:03:23;;;;;;;8.98;8.07;;;12.30;99.90;;;;;;4996061;28;20664;-75
2022/02/18 10:05:50;;;;;;;9.98;8.98;;;12.80;99.90;;;;;;5002181;28;20196;-72
2022/02/18 10:08:22;;;;;;;9.25;8.45;;;13.00;99.90;;;;;;5002121;28;20224;-75
2022/02/18 10:11:01;;;;;;;8.57;7.85;;;13.00;99.90;;;;;;5000729;28;20596;-73
2022/02/18 10:13:31;;;;;;;11.48;8.55;;;13.10;99.90;;;;;;4999958;28;20223;-77
2022/02/18 10:15:59;;;;;;;8.32;7.60;;;13.30;99.90;;;;;;5000881;28;20201;-72
2022/02/18 10:18:27;;;;;;;9.38;8.55;;;13.80;99.90;;;;;;4998285;28;20212;-73
2022/02/18 10:20:54;;;;;;;9.60;8.70;;;14.30;99.90;;;;;;5000874;28;20669;-71
2022/02/18 10:23:23;;;;;;;9.15;8.23;;;14.20;99.90;;;;;;4999393;28;20302;-71
2022/02/18 10:25:52;;;;;;;9.50;8.70;;;14.30;99.90;;;;;;4996078;28;20212;-72
2022/02/18 10:28:21;;;;;;;9.73;7.95;;;14.20;99.90;;;;;;5000395;28;20225;-72
2022/02/18 10:31:00;;;;;;;8.68;7.78;;;13.80;99.90;;;;;;5001031;28;20694;-72
2022/02/18 10:33:27;;;;;;;8.50;7.70;;;13.70;99.90;;;;;;4997434;28;20223;-72
2022/02/18 10:36:01;;;;;;;9.52;8.15;;;13.80;99.90;;;;;;4999777;28;20659;-72
2022/02/18 10:38:34;;;;;;;8.73;7.97;;;13.80;99.90;;;;;;4995005;28;20225;-73
2022/02/18 10:41:01;;;;;;;8.45;7.63;;;14.10;99.90;;;;;;4997599;28;20255;-72
2022/02/18 10:43:29;;;;;;;8.90;8.07;;;14.10;99.90;;;;;;4998685;28;20663;-72
2022/02/18 10:46:01;;;;;;;7.78;7.07;;;14.20;99.90;;;;;;4998161;28;20216;-72
2022/02/18 10:48:33;;;;;;;8.48;7.55;;;14.40;99.90;;;;;;4999286;28;20223;-72
2022/02/18 10:51:05;;;;;;;8.15;7.30;;;15.00;99.90;;;;;;5002843;28;20192;-73
2022/02/18 10:53:38;;;;;;;8.57;7.78;;;15.20;99.90;;;;;;4997681;28;20223;-72
2022/02/18 10:56:06;;;;;;;14.57;11.38;;;15.20;99.90;;;;;;5003395;28;20200;-72
2022/02/18 10:58:35;;;;;;;18.50;14.68;;;15.20;99.90;;;;;;5002239;28;20294;-71
2022/02/18 11:01:07;;;;;;;33.30;26.75;;;15.20;99.90;;;;;;5000451;28;20224;-72
2022/02/18 11:03:34;;;;;;;22.30;19.90;;;14.90;99.90;;;;;;5000145;28;20780;-71
2022/02/18 11:06:22;;;;;;;18.27;16.48;;;14.50;99.90;;;;;;4998909;28;20736;-71
2022/02/18 11:08:56;;;;;;;11.30;10.20;;;14.40;99.90;;;;;;5000294;28;20318;-72
2022/02/18 11:11:24;;;;;;;9.77;8.88;;;14.10;99.90;;;;;;5003111;28;20196;-72
2022/02/18 11:13:52;;;;;;;9.13;8.30;;;13.70;99.90;;;;;;4998498;28;20255;-72
2022/02/18 11:16:20;;;;;;;9.68;8.38;;;13.80;99.90;;;;;;5002121;28;20204;-72
2022/02/18 11:18:49;;;;;;;8.52;7.72;;;14.00;99.90;;;;;;5000557;28;20215;-72
2022/02/18 11:21:17;;;;;;;8.02;7.32;;;14.30;99.90;;;;;;5001029;28;20307;-72
2022/02/18 11:23:45;;;;;;;9.00;8.13;;;14.40;99.90;;;;;;4998858;28;20560;-72
2022/02/18 11:26:16;;;;;;;7.97;7.25;;;14.40;99.90;;;;;;4997594;28;20204;-72
2022/02/18 11:28:43;;;;;;;7.90;7.22;;;14.30;99.90;;;;;;4998276;28;20598;-71
2022/02/18 11:31:17;;;;;;;7.55;6.80;;;14.20;99.90;;;;;;5002403;28;20200;-73
2022/02/18 11:33:56;;;;;;;8.57;7.50;;;13.80;99.90;;;;;;4999250;28;20730;-72
2022/02/18 11:36:50;;;;;;;9.40;8.45;;;13.30;99.90;;;;;;4997734;28;20207;-72
2022/02/18 11:39:40;;;;;;;8.18;7.47;;;13.20;99.90;;;;;;4997596;28;20556;-72
2022/02/18 11:42:17;;;;;;;8.77;7.93;;;13.00;99.90;;;;;;5000636;28;20739;-72
2022/02/18 11:44:44;;;;;;;8.25;7.45;;;12.70;99.90;;;;;;5000042;28;20422;-72
2022/02/18 11:47:16;;;;;;;8.70;7.80;;;12.60;99.90;;;;;;4997637;28;20196;-72
2022/02/18 11:49:46;;;;;;;9.02;8.13;;;12.90;99.90;;;;;;4996202;28;20251;-73
2022/02/18 11:52:16;;;;;;;9.75;8.85;;;13.50;99.90;;;;;;4998443;28;20627;-73
2022/02/18 11:54:44;;;;;;;10.98;9.88;;;13.60;99.90;;;;;;4996428;28;22117;-73
2022/02/18 11:57:15;;;;;;;10.50;9.50;;;13.20;99.90;;;;;;4998087;28;20204;-74
2022/02/18 12:00:00;;;;;;;11.32;10.13;;;13.10;99.90;;;;;;4997155;28;20204;-75
2022/02/18 12:02:39;;;;;;;12.85;10.57;;;13.00;99.90;;;;;;4996982;28;20220;-73
2022/02/18 12:05:08;;;;;;;14.00;11.77;;;12.80;99.90;;;;;;4996070;28;20200;-73
2022/02/18 12:07:40;;;;;;;12.80;11.10;;;12.60;99.90;;;;;;4996090;28;20740;-74
2022/02/18 12:10:27;;;;;;;11.70;10.50;;;13.00;99.90;;;;;;4998188;28;20200;-72
2022/02/18 12:13:04;;;;;;;12.30;11.02;;;13.60;99.90;;;;;;5002628;28;20228;-72
2022/02/18 12:15:33;;;;;;;15.70;11.20;;;14.20;99.90;;;;;;4999069;28;20303;-71
2022/02/18 12:18:03;;;;;;;13.05;11.70;;;14.30;99.90;;;;;;4995029;28;20312;-71
2022/02/18 12:20:32;;;;;;;13.50;11.35;;;14.80;99.90;;;;;;4997951;28;20220;-72
2022/02/18 12:23:22;;;;;;;12.82;11.52;;;15.20;99.90;;;;;;4995359;28;20228;-72
2022/02/18 12:25:49;;;;;;;13.93;12.50;;;15.40;99.90;;;;;;5001610;28;20620;-72
2022/02/18 12:28:22;;;;;;;15.18;13.57;;;15.40;99.90;;;;;;5000690;28;20230;-71
2022/02/18 12:30:57;;;;;;;15.05;12.73;;;15.20;99.90;;;;;;5000181;28;20197;-72
2022/02/18 12:33:24;;;;;;;15.23;13.23;;;15.00;99.90;;;;;;5001689;28;20745;-72
2022/02/18 12:35:52;;;;;;;13.63;11.88;;;15.00;99.90;;;;;;4999410;28;20709;-73
2022/02/18 12:38:19;;;;;;;13.77;12.13;;;15.20;99.90;;;;;;4999109;28;20223;-71
2022/02/18 12:40:47;;;;;;;13.35;11.32;;;15.20;99.90;;;;;;4998381;28;20458;-73
2022/02/18 12:43:17;;;;;;;13.50;12.20;;;15.10;99.90;;;;;;4996749;28;20236;-71
2022/02/18 12:45:57;;;;;;;13.02;11.20;;;15.20;99.90;;;;;;4998851;28;20678;-71
2022/02/18 12:48:38;;;;;;;11.55;10.10;;;15.20;99.90;;;;;;4997186;28;20267;-71
2022/02/18 12:51:14;;;;;;;13.57;11.73;;;15.10;99.90;;;;;;4994931;28;20196;-70
2022/02/18 12:53:43;;;;;;;11.63;10.43;;;15.20;99.90;;;;;;4996019;28;20764;-71
2022/02/18 12:56:15;;;;;;;11.50;10.27;;;15.00;99.90;;;;;;4999983;28;20603;-70
2022/02/18 12:58:49;;;;;;;12.10;10.80;;;14.80;99.90;;;;;;4998850;28;20614;-71
2022/02/18 13:01:19;;;;;;;12.93;11.68;;;14.80;99.90;;;;;;4998748;28;20262;-71